Time,TemperatureF,DewpointF,PressureIn,WindDirection,WindDirectionDegrees,WindSpeedMPH,WindSpeedGustMPH,Humidity,HourlyPrecipIn,Conditions,Clouds,dailyrainin,SoftwareType,DateUTC
2015-04-28 00:01:00,71.0,69.0,29.87,WSW,242,2.0,3.0,92,-99.99,,,-99.99,,2015-04-28 04:01:00,
2015-04-28 00:11:00,71.0,69.0,29.87,WSW,242,2.0,3.0,92,-99.99,,,-99.99,,2015-04-28 04:11:00,
2015-04-28 00:21:00,71.0,69.0,29.87,WSW,242,2.0,3.0,92,-99.99,,,-99.99,,2015-04-28 04:21:00,
2015-04-28 00:31:00,71.0,69.0,29.87,SW,225,2.0,3.0,92,-99.99,,,-99.99,,2015-04-28 04:31:00,
2015-04-28 00:41:00,71.0,69.0,29.87,West,272,2.0,3.0,92,-99.99,,,-99.99,,2015-04-28 04:41:00,
2015-04-28 01:11:00,71.0,69.0,29.87,West,267,2.0,4.0,93,-99.99,,,-99.99,,2015-04-28 05:11:00,
2015-04-28 01:23:00,71.0,69.0,29.87,West,268,4.0,9.0,93,-99.99,,,-99.99,,2015-04-28 05:23:00,
2015-04-28 01:31:00,71.0,69.0,29.87,West,268,4.0,9.0,93,-99.99,,,-99.99,,2015-04-28 05:31:00,
2015-04-28 01:52:00,73.0,67.0,29.85,South,175,5.0,11.0,81,-99.99,,,-99.99,,2015-04-28 05:52:00,
2015-04-28 02:03:00,73.0,67.0,29.84,South,176,5.0,8.0,82,-99.99,,,-99.99,,2015-04-28 06:03:00,
2015-04-28 02:12:00,73.0,67.0,29.84,South,176,5.0,8.0,82,-99.99,,,-99.99,,2015-04-28 06:12:00,
2015-04-28 02:22:00,73.0,67.0,29.84,South,176,5.0,8.0,82,-99.99,,,-99.99,,2015-04-28 06:22:00,
2015-04-28 02:32:00,73.0,67.0,29.83,WSW,240,4.0,10.0,82,-99.99,,,-99.99,,2015-04-28 06:32:00,
2015-04-28 02:52:00,72.0,67.0,29.81,SSW,207,2.0,5.0,83,-99.99,,,-99.99,,2015-04-28 06:52:00,
2015-04-28 03:01:00,72.0,67.0,29.81,East,81,1.0,4.0,85,-99.99,,,-99.99,,2015-04-28 07:01:00,
2015-04-28 03:11:00,72.0,67.0,29.81,East,81,1.0,4.0,85,-99.99,,,-99.99,,2015-04-28 07:11:00,
2015-04-28 03:21:00,72.0,67.0,29.81,East,81,1.0,4.0,85,-99.99,,,-99.99,,2015-04-28 07:21:00,
2015-04-28 03:30:00,71.0,69.0,29.79,SSW,211,2.0,3.0,91,-99.99,,,-99.99,,2015-04-28 07:30:00,
2015-04-28 03:31:00,72.0,67.0,29.80,WSW,241,1.0,3.0,86,-99.99,,,-99.99,,2015-04-28 07:31:00,
2015-04-28 03:41:00,72.0,67.0,29.80,WSW,241,1.0,3.0,86,-99.99,,,-99.99,,2015-04-28 07:41:00,
2015-04-28 04:01:00,71.0,69.0,29.79,SSW,211,2.0,3.0,91,-99.99,,,-99.99,,2015-04-28 08:01:00,
2015-04-28 04:11:00,71.0,69.0,29.79,SSW,211,2.0,3.0,91,-99.99,,,-99.99,,2015-04-28 08:11:00,
2015-04-28 04:21:00,71.0,69.0,29.79,SSW,211,2.0,3.0,91,-99.99,,,-99.99,,2015-04-28 08:21:00,
2015-04-28 04:42:00,71.0,69.0,29.79,SW,233,1.0,3.0,92,-99.99,,,-99.99,,2015-04-28 08:42:00,
2015-04-28 05:01:00,71.0,69.0,29.78,South,174,3.0,4.0,93,-99.99,,,-99.99,,2015-04-28 09:01:00,
2015-04-28 05:11:00,71.0,69.0,29.78,SSW,210,2.0,3.0,93,-99.99,,,-99.99,,2015-04-28 09:11:00,
2015-04-28 05:21:00,71.0,69.0,29.78,SSW,210,2.0,3.0,93,-99.99,,,-99.99,,2015-04-28 09:21:00,
2015-04-28 05:30:00,70.0,69.0,29.77,SSW,202,1.0,2.0,94,-99.99,,,-99.99,,2015-04-28 09:30:00,
2015-04-28 05:31:00,71.0,69.0,29.77,South,173,1.0,3.0,92,-99.99,,,-99.99,,2015-04-28 09:31:00,
2015-04-28 06:11:00,70.0,69.0,29.77,SSW,202,1.0,2.0,94,-99.99,,,-99.99,,2015-04-28 10:11:00,
2015-04-28 06:21:00,70.0,69.0,29.77,SSW,202,1.0,2.0,94,-99.99,,,-99.99,,2015-04-28 10:21:00,
2015-04-28 06:41:00,71.0,69.0,29.77,South,179,2.0,3.0,94,-99.99,,,-99.99,,2015-04-28 10:41:00,
2015-04-28 07:02:00,71.0,69.0,29.77,SSE,168,1.0,2.0,94,-99.99,,,-99.99,,2015-04-28 11:02:00,
2015-04-28 07:11:00,71.0,69.0,29.77,SSE,151,2.0,4.0,94,-99.99,,,-99.99,,2015-04-28 11:11:00,
2015-04-28 07:21:00,71.0,69.0,29.77,SSE,151,2.0,4.0,94,-99.99,,,-99.99,,2015-04-28 11:21:00,
2015-04-28 07:32:00,71.0,69.0,29.78,SSW,192,2.0,4.0,94,-99.99,,,-99.99,,2015-04-28 11:32:00,
2015-04-28 08:12:00,73.0,68.0,29.80,ENE,60,4.0,7.0,84,-99.99,,,-99.99,,2015-04-28 12:12:00,
2015-04-28 08:22:00,73.0,68.0,29.80,ENE,60,4.0,7.0,84,-99.99,,,-99.99,,2015-04-28 12:22:00,
2015-04-28 08:30:00,74.0,70.0,29.80,SSE,167,4.0,7.0,86,-99.99,,,-99.99,,2015-04-28 12:30:00,
2015-04-28 08:32:00,73.0,68.0,29.80,ENE,57,3.0,7.0,84,-99.99,,,-99.99,,2015-04-28 12:32:00,
2015-04-28 08:42:00,74.0,69.0,29.80,NE,56,3.0,7.0,84,-99.99,,,-99.99,,2015-04-28 12:42:00,
2015-04-28 09:02:00,74.0,69.0,29.80,NE,54,3.0,6.0,85,-99.99,,,-99.99,,2015-04-28 13:02:00,
2015-04-28 09:12:00,74.0,70.0,29.80,SSE,167,4.0,7.0,86,-99.99,,,-99.99,,2015-04-28 13:12:00,
2015-04-28 09:21:00,74.0,70.0,29.80,SSE,167,4.0,7.0,86,-99.99,,,-99.99,,2015-04-28 13:21:00,
2015-04-28 10:11:00,71.0,68.0,29.81,NW,316,5.0,9.0,91,-99.99,,,-99.99,,2015-04-28 14:11:00,
2015-04-28 10:21:00,71.0,68.0,29.81,NW,316,5.0,9.0,91,-99.99,,,-99.99,,2015-04-28 14:21:00,
2015-04-28 10:30:00,72.0,69.0,29.80,NNW,332,5.0,7.0,88,-99.99,,,-99.99,,2015-04-28 14:30:00,
2015-04-28 10:31:00,72.0,69.0,29.81,WNW,290,5.0,9.0,91,-99.99,,,-99.99,,2015-04-28 14:31:00,
2015-04-28 10:42:00,72.0,69.0,29.81,WNW,290,5.0,9.0,91,-99.99,,,-99.99,,2015-04-28 14:42:00,
2015-04-28 10:52:00,72.0,68.0,29.80,SSW,207,5.0,10.0,87,-99.99,,,-99.99,,2015-04-28 14:52:00,
2015-04-28 11:01:00,72.0,69.0,29.80,NNW,332,5.0,7.0,88,-99.99,,,-99.99,,2015-04-28 15:01:00,
2015-04-28 11:11:00,72.0,69.0,29.80,NNW,332,5.0,7.0,88,-99.99,,,-99.99,,2015-04-28 15:11:00,
2015-04-28 11:21:00,72.0,69.0,29.80,NNW,332,5.0,7.0,88,-99.99,,,-99.99,,2015-04-28 15:21:00,
2015-04-28 11:30:00,72.0,69.0,29.80,SW,218,5.0,9.0,90,-99.99,,,-99.99,,2015-04-28 15:30:00,
2015-04-28 11:41:00,72.0,69.0,29.80,South,176,5.0,8.0,91,-99.99,,,-99.99,,2015-04-28 15:41:00,
2015-04-28 11:52:00,72.0,69.0,29.80,South,172,4.0,8.0,89,-99.99,,,-99.99,,2015-04-28 15:52:00,
2015-04-28 12:01:00,72.0,69.0,29.80,SW,218,5.0,9.0,90,-99.99,,,-99.99,,2015-04-28 16:01:00,
2015-04-28 12:11:00,72.0,69.0,29.80,SW,218,5.0,9.0,90,-99.99,,,-99.99,,2015-04-28 16:11:00,
2015-04-28 12:21:00,72.0,69.0,29.80,SW,218,5.0,9.0,90,-99.99,,,-99.99,,2015-04-28 16:21:00,
2015-04-28 12:30:00,69.0,67.0,29.80,South,178,16.0,30.0,94,-99.99,,,-99.99,,2015-04-28 16:30:00,
2015-04-28 12:52:00,71.0,69.0,29.82,West,262,9.0,19.0,91,-99.99,,,-99.99,,2015-04-28 16:52:00,
2015-04-28 13:12:00,69.0,67.0,29.80,South,178,16.0,30.0,94,-99.99,,,-99.99,,2015-04-28 17:12:00,
2015-04-28 13:22:00,69.0,67.0,29.80,South,178,16.0,30.0,94,-99.99,,,-99.99,,2015-04-28 17:22:00,
2015-04-28 13:30:00,67.0,65.0,29.82,NW,313,10.0,18.0,94,-99.99,,,-99.99,,2015-04-28 17:30:00,
2015-04-28 14:02:00,67.0,66.0,29.84,NW,317,13.0,22.0,94,-99.99,,,-99.99,,2015-04-28 18:02:00,
2015-04-28 14:11:00,67.0,65.0,29.82,NW,313,10.0,18.0,94,-99.99,,,-99.99,,2015-04-28 18:11:00,
2015-04-28 14:22:00,67.0,65.0,29.82,NW,313,10.0,18.0,94,-99.99,,,-99.99,,2015-04-28 18:22:00,
2015-04-28 14:42:00,68.0,67.0,29.82,West,279,9.0,19.0,95,-99.99,,,-99.99,,2015-04-28 18:42:00,
2015-04-28 14:52:00,69.0,68.0,29.82,East,93,10.0,18.0,95,-99.99,,,-99.99,,2015-04-28 18:52:00,
2015-04-28 15:03:00,70.0,68.0,29.80,NE,54,10.0,18.0,95,-99.99,,,-99.99,,2015-04-28 19:03:00,
2015-04-28 15:12:00,70.0,68.0,29.80,NE,54,10.0,18.0,95,-99.99,,,-99.99,,2015-04-28 19:12:00,
2015-04-28 15:32:00,69.0,68.0,29.80,NE,34,9.0,17.0,94,-99.99,,,-99.99,,2015-04-28 19:32:00,
2015-04-28 15:52:00,69.0,67.0,29.79,NE,52,7.0,15.0,91,-99.99,,,-99.99,,2015-04-28 19:52:00,
2015-04-28 16:02:00,71.0,67.0,29.77,ENE,59,8.0,17.0,88,-99.99,,,-99.99,,2015-04-28 20:02:00,
2015-04-28 16:11:00,71.0,67.0,29.77,ENE,59,8.0,17.0,88,-99.99,,,-99.99,,2015-04-28 20:11:00,